createdAt,value
2022-10-03T00:02:01.383Z,99378.13
2022-10-03T00:05:15.935Z,99385.69
2022-10-03T00:08:27.159Z,99388.31
2022-10-03T00:11:43.538Z,99388.34
2022-10-03T00:14:54.773Z,99406.56
2022-10-03T00:18:05.467Z,99417.38
2022-10-03T00:21:18.975Z,99422.66
2022-10-03T00:24:30.555Z,99416.84
2022-10-03T00:27:39.924Z,99416.47
2022-10-03T00:30:54.971Z,99420.38
2022-10-03T00:34:07.661Z,99427.03
2022-10-03T00:37:22.126Z,99423.34
2022-10-03T00:40:37.634Z,99425.66
2022-10-03T00:44:04.539Z,99424.72
2022-10-03T00:47:43.907Z,99438.88
2022-10-03T00:50:55.044Z,99435.03
2022-10-03T00:54:06.612Z,99442.91
2022-10-03T00:57:19.569Z,99437.63
2022-10-03T01:00:25.669Z,99436.50
2022-10-03T01:03:37.473Z,99433.44
2022-10-03T01:06:46.394Z,99432.16
2022-10-03T01:09:56.400Z,99441.66
2022-10-03T01:13:08.441Z,99441.84
2022-10-03T01:16:18.526Z,99443.31
2022-10-03T01:19:37.502Z,99434.91
2022-10-03T01:23:24.819Z,99428.75
2022-10-03T01:26:43.364Z,99428.88
2022-10-03T01:30:08.676Z,99430.13
2022-10-03T01:33:14.976Z,99435.38
2022-10-03T01:36:22.115Z,99435.66
2022-10-03T01:39:29.111Z,99431.53
2022-10-03T01:42:39.965Z,99437.81
2022-10-03T01:45:54.292Z,99434.63
2022-10-03T01:49:01.883Z,99454.50
2022-10-03T01:52:11.202Z,99451.91
2022-10-03T01:55:21.667Z,99458.75
2022-10-03T01:58:28.791Z,99462.69
2022-10-03T02:01:41.288Z,99473.22
2022-10-03T02:04:49.748Z,99472.25
2022-10-03T02:07:56.543Z,99486.16
2022-10-03T02:11:02.560Z,99485.34
2022-10-03T02:14:21.323Z,99475.81
2022-10-03T02:17:45.398Z,99479.53
2022-10-03T02:20:48.840Z,99489.22
2022-10-03T02:24:02.832Z,99488.41
2022-10-03T02:27:30.053Z,99487.41
2022-10-03T02:30:38.061Z,99490.31
2022-10-03T02:33:58.495Z,99481.44
2022-10-03T02:37:14.540Z,99481.72
2022-10-03T02:40:44.202Z,99488.22
2022-10-03T02:44:14.493Z,99489.66
2022-10-03T02:47:39.539Z,99478.38
2022-10-03T02:51:14.950Z,99480.94
2022-10-03T02:54:43.981Z,99488.53
2022-10-03T02:58:03.149Z,99488.00
2022-10-03T03:01:39.560Z,99478.88
2022-10-03T03:05:08.121Z,99480.00
2022-10-03T03:08:25.537Z,99478.69
2022-10-03T03:11:44.865Z,99471.41
2022-10-03T03:15:12.757Z,99478.81
2022-10-03T03:18:22.625Z,99468.47
2022-10-03T03:21:31.197Z,99467.63
2022-10-03T03:24:56.339Z,99470.28
2022-10-03T03:28:07.757Z,99462.72
2022-10-03T03:31:12.942Z,99468.06
2022-10-03T03:34:22.239Z,99465.13
2022-10-03T03:37:29.659Z,99469.13
2022-10-03T03:40:41.283Z,99468.66
2022-10-03T03:43:55.484Z,99474.69
2022-10-03T03:47:14.628Z,99470.03
2022-10-03T03:50:29.118Z,99470.84
2022-10-03T03:53:48.350Z,99470.31
2022-10-03T03:57:01.840Z,99467.22
2022-10-03T04:00:14.089Z,99475.34
2022-10-03T04:03:27.711Z,99480.22
2022-10-03T04:06:36.993Z,99482.19
2022-10-03T04:10:05.797Z,99491.31
2022-10-03T04:13:25.378Z,99485.31
2022-10-03T04:17:03.458Z,99493.81
2022-10-03T04:20:19.289Z,99490.53
2022-10-03T04:23:37.576Z,99488.28
2022-10-03T04:26:52.540Z,99490.22
2022-10-03T04:30:04.716Z,99489.75
2022-10-03T04:33:18.295Z,99488.72
2022-10-03T04:36:47.179Z,99494.31
2022-10-03T04:39:57.069Z,99499.47
2022-10-03T04:43:06.085Z,99504.50
2022-10-03T04:46:25.143Z,99500.47
2022-10-03T04:49:32.561Z,99502.19
2022-10-03T04:52:39.489Z,99503.00
2022-10-03T04:55:46.792Z,99499.13
2022-10-03T04:58:53.321Z,99507.41
2022-10-03T05:02:03.259Z,99513.16
2022-10-03T05:05:16.142Z,99509.38
2022-10-03T05:08:27.846Z,99514.19
2022-10-03T05:11:40.102Z,99518.53
2022-10-03T05:15:12.518Z,99516.13
2022-10-03T05:18:24.618Z,99522.91
2022-10-03T05:21:35.014Z,99522.41
2022-10-03T05:24:41.639Z,99520.16
2022-10-03T05:27:51.900Z,99522.41
2022-10-03T05:30:59.291Z,99524.25
2022-10-03T05:34:13.187Z,99522.63
2022-10-03T05:37:36.605Z,99531.16
2022-10-03T05:40:41.649Z,99540.09
2022-10-03T05:43:48.877Z,99533.00
2022-10-03T05:47:00.251Z,99544.22
2022-10-03T05:50:28.573Z,99555.72
2022-10-03T05:53:48.181Z,99551.25
2022-10-03T05:57:21.042Z,99561.63
2022-10-03T06:00:25.054Z,99575.38
2022-10-03T06:03:57.729Z,99581.06
2022-10-03T06:07:14.149Z,99575.78
2022-10-03T06:10:43.489Z,99572.56
2022-10-03T06:14:02.435Z,99576.66
2022-10-03T06:17:43.279Z,99577.38
2022-10-03T06:21:08.969Z,99578.25
2022-10-03T06:24:52.681Z,99584.59
2022-10-03T06:28:37.663Z,99588.78
2022-10-03T06:32:25.702Z,99588.09
2022-10-03T06:36:22.555Z,99587.25
2022-10-03T06:39:59.380Z,99595.16
2022-10-03T06:43:38.300Z,99603.75
2022-10-03T06:47:01.165Z,99608.78
2022-10-03T06:50:32.335Z,99611.09
2022-10-03T06:53:50.305Z,99614.34
2022-10-03T06:57:06.742Z,99613.94
2022-10-03T07:00:15.481Z,99613.16
2022-10-03T07:03:45.122Z,99606.31
2022-10-03T07:07:13.213Z,99618.47
2022-10-03T07:10:23.943Z,99626.13
2022-10-03T07:13:59.658Z,99624.38
2022-10-03T07:17:16.975Z,99637.78
2022-10-03T07:20:45.894Z,99634.03
2022-10-03T07:24:02.983Z,99631.16
2022-10-03T07:27:21.198Z,99641.97
2022-10-03T07:30:26.408Z,99640.84
2022-10-03T07:33:50.961Z,99645.06
2022-10-03T07:37:37.107Z,99646.38
2022-10-03T07:41:05.416Z,99643.94
2022-10-03T07:44:17.995Z,99642.56
2022-10-03T07:47:47.858Z,99652.78
2022-10-03T07:50:58.917Z,99642.16
2022-10-03T07:54:24.477Z,99647.16
2022-10-03T07:58:03.766Z,99639.22
2022-10-03T08:01:15.190Z,99638.72
2022-10-03T08:04:44.437Z,99649.50
2022-10-03T08:08:02.756Z,99646.47
2022-10-03T08:11:25.520Z,99656.22
2022-10-03T08:14:35.377Z,99655.25
2022-10-03T08:18:20.414Z,99661.88
2022-10-03T08:21:30.045Z,99657.97
2022-10-03T08:25:01.976Z,99671.34
2022-10-03T08:28:27.552Z,99669.44
2022-10-03T08:32:03.702Z,99667.84
2022-10-03T08:35:27.859Z,99668.19
2022-10-03T08:38:54.114Z,99667.41
2022-10-03T08:42:35.997Z,99669.66
2022-10-03T08:45:50.948Z,99670.47
2022-10-03T08:49:02.017Z,99664.75
2022-10-03T08:52:23.123Z,99665.59
2022-10-03T08:55:45.522Z,99666.09
2022-10-03T08:59:31.083Z,99672.75
2022-10-03T09:03:33.534Z,99668.53
2022-10-03T09:07:18.663Z,99671.09
2022-10-03T09:10:35.569Z,99669.00
2022-10-03T09:14:11.909Z,99667.50
2022-10-03T09:17:35.692Z,99665.94
2022-10-03T09:21:10.760Z,99666.72
2022-10-03T09:24:32.007Z,99661.09
2022-10-03T09:28:25.705Z,99662.78
2022-10-03T09:31:59.922Z,99661.06
2022-10-03T09:35:30.262Z,99667.44
2022-10-03T09:39:14.436Z,99665.09
2022-10-03T09:42:55.883Z,99660.50
2022-10-03T09:46:27.621Z,99648.41
2022-10-03T09:49:48.340Z,99648.09
2022-10-03T09:53:13.666Z,99655.69
2022-10-03T09:56:40.082Z,99654.66
2022-10-03T09:59:58.144Z,99653.84
2022-10-03T10:03:42.646Z,99657.03
2022-10-03T10:07:21.046Z,99647.94
2022-10-03T10:11:10.575Z,99649.09
2022-10-03T10:14:36.521Z,99655.44
2022-10-03T10:18:14.759Z,99651.13
2022-10-03T10:21:48.979Z,99656.97
2022-10-03T10:25:26.697Z,99652.63
2022-10-03T10:29:08.797Z,99659.22
2022-10-03T10:32:57.346Z,99659.44
2022-10-03T10:36:39.907Z,99659.88
2022-10-03T10:40:02.939Z,99654.69
2022-10-03T10:43:43.646Z,99655.41
2022-10-03T10:47:12.509Z,99661.22
2022-10-03T10:50:57.384Z,99660.00
2022-10-03T10:54:26.307Z,99669.31
2022-10-03T10:58:13.646Z,99658.47
2022-10-03T11:01:57.465Z,99661.13
2022-10-03T11:05:39.571Z,99656.88
2022-10-03T11:09:08.267Z,99646.84
2022-10-03T11:12:41.394Z,99646.53
2022-10-03T11:16:26.561Z,99637.16
2022-10-03T11:20:03.902Z,99640.19
2022-10-03T11:23:25.147Z,99638.28
2022-10-03T11:26:54.858Z,99638.66
2022-10-03T11:30:21.232Z,99646.25
2022-10-03T11:33:57.317Z,99644.97
2022-10-03T11:37:17.395Z,99643.16
2022-10-03T11:40:29.300Z,99639.84
2022-10-03T11:43:50.582Z,99637.84
2022-10-03T11:47:41.043Z,99644.41
2022-10-03T11:50:47.725Z,99635.75
2022-10-03T11:54:12.959Z,99637.41
2022-10-03T11:57:21.406Z,99636.50
2022-10-03T12:00:24.273Z,99634.41
2022-10-03T12:03:30.118Z,99632.25
2022-10-03T12:07:13.128Z,99624.03
2022-10-03T12:10:26.087Z,99625.34
2022-10-03T12:13:33.043Z,99627.78
2022-10-03T12:16:51.423Z,99628.19
2022-10-03T12:20:00.096Z,99614.97
2022-10-03T12:23:08.751Z,99620.63
2022-10-03T12:26:17.142Z,99624.69
2022-10-03T12:29:21.792Z,99616.16
2022-10-03T12:32:32.068Z,99596.25
2022-10-03T12:35:41.489Z,99588.63
2022-10-03T12:38:51.262Z,99587.13
2022-10-03T12:42:10.863Z,99589.75
2022-10-03T12:45:25.776Z,99597.25
2022-10-03T12:48:43.034Z,99598.09
2022-10-03T12:51:53.921Z,99593.84
2022-10-03T12:55:17.571Z,99579.38
2022-10-03T12:58:28.808Z,99572.50
2022-10-03T13:01:44.043Z,99564.28
2022-10-03T13:04:57.195Z,99562.34
2022-10-03T13:08:03.851Z,99562.34
2022-10-03T13:11:15.229Z,99556.31
2022-10-03T13:14:28.665Z,99559.25
2022-10-03T13:17:37.091Z,99551.31
2022-10-03T13:20:42.378Z,99554.59
2022-10-03T13:23:49.848Z,99546.19
2022-10-03T13:26:57.945Z,99543.38
2022-10-03T13:30:19.344Z,99542.59
2022-10-03T13:33:25.015Z,99540.44
2022-10-03T13:36:31.322Z,99532.63
2022-10-03T13:39:45.027Z,99536.81
2022-10-03T13:42:53.345Z,99543.81
2022-10-03T13:45:57.956Z,99550.09
2022-10-03T13:49:03.116Z,99540.22
2022-10-03T13:52:15.448Z,99541.47
2022-10-03T13:55:31.298Z,99545.13
2022-10-03T13:58:44.243Z,99539.38
2022-10-03T14:01:55.032Z,99534.50
2022-10-03T14:05:09.268Z,99527.28
2022-10-03T14:08:24.787Z,99522.66
2022-10-03T14:11:37.793Z,99519.81
2022-10-03T14:14:51.810Z,99507.09
2022-10-03T14:18:03.063Z,99517.16
2022-10-03T14:21:30.041Z,99518.66
2022-10-03T14:24:42.921Z,99515.00
2022-10-03T14:27:52.658Z,99507.88
2022-10-03T14:31:06.623Z,99503.19
2022-10-03T14:34:29.434Z,99490.81
2022-10-03T14:37:40.052Z,99487.44
2022-10-03T14:40:48.563Z,99481.97
2022-10-03T14:43:53.873Z,99471.25
2022-10-03T14:46:59.735Z,99476.59
2022-10-03T14:50:04.895Z,99483.34
2022-10-03T14:53:11.050Z,99471.31
2022-10-03T14:56:14.350Z,99468.28
2022-10-03T14:59:20.939Z,99465.59
2022-10-03T15:02:29.650Z,99468.97
2022-10-03T15:05:38.395Z,99466.91
2022-10-03T15:08:44.628Z,99462.31
2022-10-03T15:11:50.050Z,99463.50
2022-10-03T15:14:58.143Z,99467.13
2022-10-03T15:18:03.412Z,99456.13
2022-10-03T15:21:12.361Z,99449.63
2022-10-03T15:24:24.941Z,99462.41
2022-10-03T15:27:30.037Z,99452.97
2022-10-03T15:30:35.587Z,99447.56
2022-10-03T15:33:39.593Z,99444.25
2022-10-03T15:36:48.196Z,99442.78
2022-10-03T15:39:53.304Z,99437.59
2022-10-03T15:43:04.198Z,99439.03
2022-10-03T15:46:14.042Z,99439.28
2022-10-03T15:49:22.521Z,99431.06
2022-10-03T15:52:33.115Z,99427.31
2022-10-03T15:55:42.179Z,99428.53
2022-10-03T15:58:48.013Z,99436.38
2022-10-03T16:01:52.832Z,99437.88
2022-10-03T16:04:57.279Z,99431.53
2022-10-03T16:08:05.689Z,99433.03
2022-10-03T16:11:14.153Z,99434.25
2022-10-03T16:14:19.649Z,99442.78
2022-10-03T16:17:28.161Z,99442.78
2022-10-03T16:20:36.428Z,99448.56
2022-10-03T16:23:40.830Z,99438.53
2022-10-03T16:26:49.744Z,99434.56
2022-10-03T16:29:59.142Z,99429.00
2022-10-03T16:33:06.268Z,99429.75
2022-10-03T16:36:11.105Z,99436.63
2022-10-03T16:39:22.828Z,99437.66
2022-10-03T16:42:29.121Z,99440.13
2022-10-03T16:45:34.645Z,99429.75
2022-10-03T16:48:55.007Z,99440.53
2022-10-03T16:52:02.170Z,99445.31
2022-10-03T16:55:08.852Z,99439.72
2022-10-03T16:58:20.016Z,99447.34
2022-10-03T17:01:33.221Z,99450.44
2022-10-03T17:04:39.176Z,99445.09
2022-10-03T17:07:44.329Z,99454.78
2022-10-03T17:10:54.032Z,99462.34
2022-10-03T17:14:02.023Z,99467.19
2022-10-03T17:17:06.787Z,99460.97
2022-10-03T17:20:15.152Z,99456.22
2022-10-03T17:23:25.631Z,99440.59
2022-10-03T17:26:34.062Z,99445.53
2022-10-03T17:29:42.162Z,99440.03
2022-10-03T17:32:47.895Z,99434.91
2022-10-03T17:36:00.771Z,99450.16
2022-10-03T17:39:05.152Z,99446.75
2022-10-03T17:42:19.667Z,99446.91
2022-10-03T17:45:33.734Z,99446.50
2022-10-03T17:48:39.607Z,99453.63
2022-10-03T17:51:44.725Z,99447.91
2022-10-03T17:54:49.460Z,99455.22
2022-10-03T17:57:55.959Z,99454.31
2022-10-03T18:01:05.532Z,99442.78
2022-10-03T18:04:16.573Z,99447.03
2022-10-03T18:07:21.208Z,99436.41
2022-10-03T18:10:26.323Z,99450.28
2022-10-03T18:13:37.581Z,99448.03
2022-10-03T18:16:47.502Z,99438.13
2022-10-03T18:19:57.407Z,99436.91
2022-10-03T18:23:01.281Z,99431.47
2022-10-03T18:26:19.491Z,99433.25
2022-10-03T18:29:30.352Z,99430.84
2022-10-03T18:32:35.899Z,99428.44
2022-10-03T18:35:41.470Z,99431.75
2022-10-03T18:38:45.875Z,99432.53
2022-10-03T18:41:50.117Z,99426.84
2022-10-03T18:44:54.223Z,99436.06
2022-10-03T18:48:02.016Z,99438.06
2022-10-03T18:51:12.861Z,99434.63
2022-10-03T18:54:29.796Z,99431.75
2022-10-03T18:57:37.683Z,99436.13
2022-10-03T19:00:49.766Z,99427.47
2022-10-03T19:03:55.995Z,99419.81
2022-10-03T19:06:59.452Z,99417.75
2022-10-03T19:10:32.837Z,99429.47
2022-10-03T19:13:41.123Z,99432.75
2022-10-03T19:16:59.737Z,99428.34
2022-10-03T19:20:17.475Z,99437.94
2022-10-03T19:23:26.593Z,99434.47
2022-10-03T19:26:35.556Z,99444.34
2022-10-03T19:29:42.198Z,99451.81
2022-10-03T19:32:51.420Z,99443.16
2022-10-03T19:35:57.806Z,99452.50
2022-10-03T19:39:00.969Z,99444.41
2022-10-03T19:42:21.809Z,99449.06
2022-10-03T19:45:24.770Z,99450.84
2022-10-03T19:48:30.347Z,99449.91
2022-10-03T19:51:33.292Z,99456.78
2022-10-03T19:54:45.564Z,99448.09
2022-10-03T19:57:50.631Z,99444.69
2022-10-03T20:00:55.344Z,99438.13
2022-10-03T20:04:00.727Z,99435.91
2022-10-03T20:07:05.806Z,99437.31
2022-10-03T20:10:33.992Z,99434.59
2022-10-03T20:13:42.968Z,99437.31
2022-10-03T20:16:48.107Z,99442.81
2022-10-03T20:19:55.894Z,99440.69
2022-10-03T20:23:03.565Z,99436.56
2022-10-03T20:26:10.383Z,99423.81
2022-10-03T20:29:21.355Z,99423.28
2022-10-03T20:32:24.442Z,99425.38
2022-10-03T20:35:37.951Z,99423.56
2022-10-03T20:38:55.858Z,99432.59
2022-10-03T20:42:01.002Z,99434.84
2022-10-03T20:45:06.614Z,99434.66
2022-10-03T20:48:12.186Z,99431.31
2022-10-03T20:51:23.736Z,99426.91
2022-10-03T20:54:27.935Z,99429.41
2022-10-03T20:57:32.764Z,99433.47
2022-10-03T21:00:44.205Z,99426.94
2022-10-03T21:04:02.604Z,99435.22
2022-10-03T21:07:17.377Z,99433.00
2022-10-03T21:10:26.283Z,99434.41
2022-10-03T21:13:32.655Z,99427.91
2022-10-03T21:16:38.665Z,99422.19
2022-10-03T21:19:47.357Z,99420.13
2022-10-03T21:22:53.010Z,99424.81
2022-10-03T21:25:58.705Z,99417.16
2022-10-03T21:29:21.833Z,99411.03
2022-10-03T21:32:34.713Z,99403.16
2022-10-03T21:35:40.327Z,99403.13
2022-10-03T21:38:48.384Z,99394.75
2022-10-03T21:41:59.670Z,99397.72
2022-10-03T21:45:15.877Z,99386.66
2022-10-03T21:48:26.367Z,99390.03
2022-10-03T21:51:31.817Z,99389.47
2022-10-03T21:54:40.689Z,99396.28
2022-10-03T21:57:53.321Z,99395.69
2022-10-03T22:01:02.923Z,99393.22
2022-10-03T22:04:10.029Z,99391.81
2022-10-03T22:07:15.552Z,99385.25
2022-10-03T22:10:22.121Z,99392.09
2022-10-03T22:13:27.182Z,99377.44
2022-10-03T22:16:35.298Z,99386.41
2022-10-03T22:19:40.336Z,99376.69
2022-10-03T22:22:58.574Z,99384.91
2022-10-03T22:26:12.348Z,99370.53
2022-10-03T22:29:22.953Z,99363.31
2022-10-03T22:32:28.570Z,99363.91
2022-10-03T22:35:40.656Z,99367.44
2022-10-03T22:38:43.524Z,99359.84
2022-10-03T22:41:50.439Z,99362.88
2022-10-03T22:44:54.814Z,99364.09
2022-10-03T22:48:00.034Z,99362.75
2022-10-03T22:51:04.168Z,99357.63
2022-10-03T22:54:10.996Z,99359.41
2022-10-03T22:57:15.381Z,99356.09
2022-10-03T23:00:23.102Z,99353.31
2022-10-03T23:03:28.453Z,99354.47
2022-10-03T23:06:44.977Z,99351.25
2022-10-03T23:09:56.366Z,99339.28
2022-10-03T23:13:04.213Z,99343.38
2022-10-03T23:16:19.883Z,99326.53
2022-10-03T23:19:33.804Z,99337.75
2022-10-03T23:22:36.399Z,99345.97
2022-10-03T23:25:48.761Z,99349.31
2022-10-03T23:28:58.941Z,99341.19
2022-10-03T23:32:03.986Z,99343.28
2022-10-03T23:35:16.605Z,99345.44
2022-10-03T23:38:53.861Z,99336.50
2022-10-03T23:42:01.003Z,99341.88
2022-10-03T23:45:14.010Z,99337.31
2022-10-03T23:48:19.741Z,99332.41
2022-10-03T23:51:25.493Z,99324.56
2022-10-03T23:54:28.586Z,99322.69
2022-10-03T23:57:33.258Z,99318.09
